Time;durP1;ratioP1;P1;durP2;ratioP2;P2;SDS_P1;SDS_P2;PMS_P1;PMS_P2;Temp;Humidity;BMP_temperature;BMP_pressure;BME280_temperature;BME280_humidity;BME280_pressure;Samples;Min_cycle;Max_cycle;Signal;HPM_P1;HPM_P2
2022/04/15 00:00:48;;;;;;;52.15;23.13;;;;;;;9.94;46.48;95420.84;4976205;28;20156;-79
2022/04/15 00:03:14;;;;;;;54.47;22.00;;;;;;;9.97;46.00;95422.22;4957160;28;20038;-79
2022/04/15 00:05:45;;;;;;;44.72;19.38;;;;;;;9.88;46.58;95424.25;4975834;28;20105;-79
2022/04/15 00:08:11;;;;;;;65.15;22.90;;;;;;;9.80;46.77;95424.53;4975654;28;20054;-79
2022/04/15 00:10:39;;;;;;;51.25;20.90;;;;;;;9.83;46.42;95431.91;4974240;28;20062;-78
2022/04/15 00:13:06;;;;;;;45.42;21.50;;;;;;;9.82;46.38;95430.31;4951376;28;20157;-77
2022/04/15 00:15:32;;;;;;;40.90;18.25;;;;;;;9.83;46.18;95422.31;4958294;28;20423;-78
2022/04/15 00:17:57;;;;;;;39.70;18.58;;;;;;;9.86;45.79;95427.06;4942803;28;20031;-79
2022/04/15 00:20:24;;;;;;;38.67;18.30;;;;;;;9.87;46.37;95427.88;4978433;28;20038;-78
2022/04/15 00:22:50;;;;;;;35.97;17.73;;;;;;;9.87;46.38;95425.28;4959808;28;20045;-78
2022/04/15 00:25:16;;;;;;;27.20;15.52;;;;;;;9.86;46.69;95426.28;4942108;28;20039;-78
2022/04/15 00:27:41;;;;;;;28.83;16.25;;;;;;;9.84;46.60;95425.69;4975989;28;20086;-78
2022/04/15 00:30:08;;;;;;;38.20;15.88;;;;;;;9.78;46.71;95429.16;4943443;28;20039;-78
2022/04/15 00:32:33;;;;;;;33.40;15.85;;;;;;;9.67;46.96;95435.00;4974132;28;20043;-78
2022/04/15 00:34:59;;;;;;;35.15;16.00;;;;;;;9.62;46.75;95428.66;4972900;28;20045;-78
2022/04/15 00:37:24;;;;;;;46.28;15.75;;;;;;;9.57;46.80;95428.47;4958199;28;20035;-78
2022/04/15 00:39:50;;;;;;;31.77;16.17;;;;;;;9.58;47.68;95437.84;4957369;28;20027;-79
2022/04/15 00:42:16;;;;;;;42.35;16.38;;;;;;;9.54;47.18;95433.28;4974176;28;20498;-78
2022/04/15 00:44:42;;;;;;;32.85;15.65;;;;;;;9.47;47.20;95425.56;4974260;28;20058;-79
2022/04/15 00:47:26;;;;;;;53.72;17.40;;;;;;;9.44;48.07;95420.00;4974183;28;20027;-78
2022/04/15 00:49:52;;;;;;;47.70;16.90;;;;;;;9.39;48.11;95425.78;4973910;28;20047;-78
2022/04/15 00:52:17;;;;;;;46.65;17.73;;;;;;;9.38;48.53;95426.00;4975517;28;20046;-78
2022/04/15 00:54:43;;;;;;;59.53;17.17;;;;;;;9.34;48.40;95430.81;4958057;28;20047;-78
2022/04/15 00:57:11;;;;;;;43.53;17.50;;;;;;;9.26;48.52;95423.28;4957715;28;20031;-79
2022/04/15 00:59:38;;;;;;;39.78;16.15;;;;;;;9.24;48.37;95433.06;4989498;28;20368;-78
2022/04/15 01:02:04;;;;;;;39.85;15.63;;;;;;;9.26;48.71;95428.47;4973836;28;20475;-78
2022/04/15 01:04:30;;;;;;;44.20;15.68;;;;;;;9.23;48.75;95431.47;4973979;28;20418;-78
2022/04/15 01:06:56;;;;;;;36.22;15.52;;;;;;;9.21;49.08;95431.69;4941859;28;20517;-79
2022/04/15 01:09:21;;;;;;;45.70;15.65;;;;;;;9.22;48.83;95432.47;4941814;28;20169;-78
2022/04/15 01:11:47;;;;;;;36.60;16.00;;;;;;;9.17;48.75;95432.31;4957397;28;20041;-77
2022/04/15 01:14:12;;;;;;;36.95;15.05;;;;;;;9.18;49.18;95433.91;4956674;28;20030;-78
2022/04/15 01:16:38;;;;;;;47.78;15.00;;;;;;;9.06;49.08;95431.16;4957321;28;20034;-78
2022/04/15 01:19:03;;;;;;;40.88;15.27;;;;;;;9.08;49.41;95430.94;4975020;28;20185;-78
2022/04/15 01:21:31;;;;;;;28.33;15.00;;;;;;;9.05;48.94;95428.78;4957082;28;20034;-78
2022/04/15 01:23:57;;;;;;;45.40;22.40;;;;;;;9.02;49.00;95432.59;4957935;28;20031;-79
2022/04/15 01:26:23;;;;;;;62.72;28.27;;;;;;;8.93;49.70;95429.41;4973799;28;20053;-78
2022/04/15 01:28:48;;;;;;;56.63;26.83;;;;;;;8.91;49.28;95420.25;4956813;28;20027;-78
2022/04/15 01:31:13;;;;;;;56.15;24.73;;;;;;;8.87;49.42;95432.03;4974707;28;20043;-79
2022/04/15 01:33:39;;;;;;;54.05;22.35;;;;;;;8.83;49.71;95418.69;4973360;28;20019;-78
2022/04/15 01:36:04;;;;;;;54.50;22.13;;;;;;;8.79;49.61;95417.53;4973711;28;20035;-79
2022/04/15 01:38:30;;;;;;;45.65;18.20;;;;;;;8.80;49.64;95413.94;4973323;28;20053;-79
2022/04/15 01:40:56;;;;;;;40.65;17.25;;;;;;;8.78;50.00;95413.31;4957514;28;20070;-79
2022/04/15 01:43:21;;;;;;;31.17;15.85;;;;;;;8.82;49.25;95418.91;4973362;28;20038;-79
2022/04/15 01:45:47;;;;;;;27.25;14.43;;;;;;;8.82;49.37;95411.94;4973717;28;20119;-79
2022/04/15 01:48:13;;;;;;;35.58;13.07;;;;;;;8.81;49.60;95405.16;4973647;28;20027;-79
2022/04/15 01:50:38;;;;;;;38.53;16.17;;;;;;;8.83;49.64;95412.72;4973336;28;20034;-79
2022/04/15 01:53:04;;;;;;;52.25;15.90;;;;;;;8.77;49.89;95409.13;4977089;28;20062;-79
2022/04/15 01:55:29;;;;;;;41.25;15.43;;;;;;;8.73;49.60;95408.75;4961203;28;20058;-79
2022/04/15 01:57:55;;;;;;;33.33;16.30;;;;;;;8.73;49.64;95410.56;4982004;28;20043;-78
2022/04/15 02:00:20;;;;;;;34.78;17.73;;;;;;;8.65;49.63;95409.00;4974981;28;20102;-78
2022/04/15 02:02:46;;;;;;;27.52;14.82;;;;;;;8.65;49.84;95397.81;4992025;28;20665;-79
2022/04/15 02:05:11;;;;;;;38.45;17.58;;;;;;;8.61;49.63;95404.41;4997943;28;20047;-79
2022/04/15 02:07:43;;;;;;;49.00;19.58;;;;;;;8.54;50.32;95401.03;4981821;28;20039;-79
2022/04/15 02:10:09;;;;;;;46.88;19.15;;;;;;;8.55;49.40;95397.44;4948164;28;20146;-79
2022/04/15 02:12:34;;;;;;;57.53;21.10;;;;;;;8.44;49.82;95404.06;4974518;28;20042;-79
2022/04/15 02:15:00;;;;;;;54.42;17.88;;;;;;;8.47;50.04;95400.28;4958666;28;20038;-79
2022/04/15 02:17:25;;;;;;;50.63;20.33;;;;;;;8.49;49.52;95403.47;4974803;28;20037;-79
2022/04/15 02:19:52;;;;;;;48.33;19.90;;;;;;;8.43;49.74;95405.84;4974844;28;20038;-79
2022/04/15 02:22:17;;;;;;;42.67;19.13;;;;;;;8.40;49.95;95397.69;4956188;28;20041;-79
2022/04/15 02:24:43;;;;;;;47.60;17.02;;;;;;;8.36;49.91;95396.50;4974571;28;20039;-79
2022/04/15 02:27:08;;;;;;;58.78;18.50;;;;;;;8.30;50.10;95392.91;4976904;28;20065;-79
2022/04/15 02:29:35;;;;;;;51.58;15.25;;;;;;;8.31;50.22;95393.72;4976129;28;20030;-79
2022/04/15 02:32:00;;;;;;;40.92;16.05;;;;;;;8.33;50.10;95400.28;4976012;28;20506;-79
2022/04/15 02:34:26;;;;;;;32.38;14.65;;;;;;;8.33;49.91;95395.09;4977981;28;20045;-78
2022/04/15 02:36:51;;;;;;;46.33;18.13;;;;;;;8.29;50.17;95403.47;4942509;28;20049;-80
2022/04/15 02:39:16;;;;;;;42.95;20.45;;;;;;;8.18;50.48;95399.72;4975404;28;20027;-77
2022/04/15 02:41:42;;;;;;;45.10;19.35;;;;;;;8.16;50.92;95406.91;4973505;28;20030;-79
2022/04/15 02:44:08;;;;;;;34.08;16.30;;;;;;;8.13;50.10;95402.91;4974360;28;20554;-79
2022/04/15 02:46:34;;;;;;;31.73;17.45;;;;;;;8.18;50.08;95397.13;4975073;28;20035;-79
2022/04/15 02:48:59;;;;;;;34.58;16.17;;;;;;;8.16;49.84;95396.53;4990605;28;20039;-78
2022/04/15 02:51:25;;;;;;;35.90;16.17;;;;;;;8.14;50.24;95401.13;4975347;28;20070;-79
2022/04/15 02:53:51;;;;;;;45.05;14.95;;;;;;;8.13;50.83;95396.91;4976157;28;20114;-79
2022/04/15 02:56:16;;;;;;;37.85;14.98;;;;;;;8.13;50.23;95402.91;4945083;28;20163;-78
2022/04/15 02:58:42;;;;;;;40.47;16.77;;;;;;;8.11;50.35;95398.91;4959919;28;20050;-78
2022/04/15 03:01:07;;;;;;;56.03;18.00;;;;;;;8.12;50.37;95403.88;4978211;28;20114;-79
2022/04/15 03:03:34;;;;;;;55.60;20.15;;;;;;;8.06;50.70;95409.09;4979551;28;20740;-78
2022/04/15 03:06:02;;;;;;;49.25;18.70;;;;;;;8.06;50.87;95403.91;4963643;28;20174;-79
2022/04/15 03:08:31;;;;;;;63.10;21.00;;;;;;;8.05;51.47;95402.31;4976288;28;20495;-79
2022/04/15 03:10:57;;;;;;;74.35;28.38;;;;;;;8.06;51.23;95406.50;4977338;28;20047;-79
2022/04/15 03:13:23;;;;;;;61.65;25.95;;;;;;;8.08;51.03;95404.50;4944836;28;20503;-78
2022/04/15 03:15:49;;;;;;;85.18;30.58;;;;;;;8.03;51.59;95406.91;4962934;28;20082;-78
2022/04/15 03:18:15;;;;;;;64.95;27.35;;;;;;;8.00;51.38;95407.31;4976794;28;20038;-79
2022/04/15 03:20:42;;;;;;;62.45;28.30;;;;;;;7.97;51.43;95397.31;4974658;28;20031;-77
2022/04/15 03:23:08;;;;;;;56.92;26.55;;;;;;;7.95;51.92;95399.31;4974709;28;20502;-78
2022/04/15 03:25:35;;;;;;;53.72;24.48;;;;;;;7.91;51.82;95408.50;4962590;28;20042;-78
2022/04/15 03:28:01;;;;;;;60.30;24.42;;;;;;;7.91;51.26;95404.13;4963554;28;20031;-78
2022/04/15 03:30:27;;;;;;;56.65;22.52;;;;;;;7.91;51.64;95409.28;4979225;28;20035;-78
2022/04/15 03:32:53;;;;;;;71.28;23.67;;;;;;;7.95;51.67;95409.69;4975545;28;20041;-78
2022/04/15 03:35:20;;;;;;;62.05;24.08;;;;;;;7.96;51.84;95411.28;4974196;28;20037;-78
2022/04/15 03:37:49;;;;;;;54.70;26.50;;;;;;;7.93;51.64;95416.88;4942665;28;20590;-78
2022/04/15 03:40:14;;;;;;;65.18;31.70;;;;;;;7.90;51.90;95418.06;4955566;28;20532;-77
2022/04/15 03:43:25;;;;;;;85.68;39.92;;;;;;;7.91;51.75;95418.84;4957391;28;20055;-77
2022/04/15 03:45:44;;;;;;;106.95;38.45;;;;;;;7.92;51.92;95416.06;4957144;28;20058;-76
2022/04/15 03:48:09;;;;;;;79.05;35.70;;;;;;;7.88;51.91;95420.06;4972280;28;20395;-76
2022/04/15 03:50:34;;;;;;;87.38;35.97;;;;;;;7.87;51.40;95421.06;4972135;28;20503;-77
2022/04/15 03:53:00;;;;;;;101.85;37.88;;;;;;;7.89;51.42;95413.88;4971472;28;20030;-76
2022/04/15 03:55:25;;;;;;;80.38;28.63;;;;;;;7.85;51.67;95417.06;4970951;28;20047;-75
2022/04/15 03:57:51;;;;;;;64.88;30.48;;;;;;;7.87;51.27;95428.03;4972602;28;20035;-81
2022/04/15 04:00:18;;;;;;;76.88;36.60;;;;;;;7.94;52.46;95421.03;4970800;28;20082;-78
2022/04/15 04:02:44;;;;;;;87.32;40.97;;;;;;;8.01;51.49;95421.84;4971412;28;20110;-76
2022/04/15 04:05:10;;;;;;;98.90;40.88;;;;;;;8.12;51.32;95423.81;4971856;28;20664;-76
2022/04/15 04:07:35;;;;;;;87.63;38.72;;;;;;;8.15;51.42;95426.03;4970792;28;20042;-76
2022/04/15 04:10:01;;;;;;;86.68;35.78;;;;;;;8.31;51.13;95424.81;4954479;28;20406;-75
2022/04/15 04:12:33;;;;;;;82.05;36.83;;;;;;;8.37;50.64;95424.81;4970828;28;20097;-75
2022/04/15 04:15:02;;;;;;;91.45;34.03;;;;;;;8.61;50.29;95430.31;4971466;28;20039;-75
2022/04/15 04:17:28;;;;;;;76.68;31.08;;;;;;;8.79;49.37;95427.91;4971174;28;20050;-75
2022/04/15 04:19:53;;;;;;;70.63;27.98;;;;;;;8.94;49.09;95427.63;4970426;28;20105;-75
2022/04/15 04:22:19;;;;;;;79.55;29.42;;;;;;;9.14;49.09;95430.16;4971823;28;20093;-75
2022/04/15 04:24:44;;;;;;;84.50;43.03;;;;;;;9.80;47.66;95435.72;4970325;28;20404;-75
2022/04/15 04:27:09;;;;;;;208.52;124.70;;;;;;;10.73;44.90;95437.47;4970042;28;20027;-75
2022/04/15 04:29:35;;;;;;;179.38;112.43;;;;;;;11.74;42.65;95436.81;4970302;28;20041;-75
2022/04/15 04:32:00;;;;;;;134.75;73.13;;;;;;;12.76;39.98;95434.69;4970902;28;20426;-75
2022/04/15 04:34:26;;;;;;;90.93;52.00;;;;;;;13.90;37.20;95428.72;4969616;28;20055;-75
2022/04/15 04:36:51;;;;;;;111.18;53.00;;;;;;;14.54;36.06;95429.19;4970768;28;20038;-76
2022/04/15 04:39:17;;;;;;;51.97;25.00;;;;;;;14.60;35.53;95433.44;4970126;28;20054;-76
2022/04/15 04:41:42;;;;;;;39.60;19.02;;;;;;;14.65;35.35;95430.91;4971178;28;20043;-76
2022/04/15 04:44:08;;;;;;;93.68;29.83;;;;;;;15.12;35.04;95436.47;4970853;28;20120;-76
2022/04/15 04:46:34;;;;;;;97.70;30.73;;;;;;;15.53;34.88;95431.66;4971450;28;20035;-76
2022/04/15 04:48:59;;;;;;;86.13;27.85;;;;;;;16.08;33.94;95436.63;4970221;28;20509;-76
2022/04/15 04:51:24;;;;;;;56.85;19.60;;;;;;;16.98;32.00;95431.44;4971058;28;20037;-76
2022/04/15 04:53:50;;;;;;;21.05;10.68;;;;;;;17.77;29.86;95433.03;4970678;28;20936;-76
2022/04/15 04:56:15;;;;;;;28.98;10.80;;;;;;;18.92;28.01;95435.84;4969979;28;20045;-77
2022/04/15 04:58:41;;;;;;;37.65;13.82;;;;;;;20.16;26.78;95438.31;4969896;28;20037;-76
2022/04/15 05:01:07;;;;;;;54.67;15.63;;;;;;;21.34;25.93;95433.47;4970391;28;20054;-76
2022/04/15 05:03:32;;;;;;;44.85;14.95;;;;;;;22.35;23.95;95431.22;4970912;28;20047;-76
2022/04/15 05:05:58;;;;;;;45.17;11.50;;;;;;;23.55;22.52;95431.06;4970404;28;20038;-77
2022/04/15 05:08:23;;;;;;;34.42;11.68;;;;;;;24.75;20.97;95432.28;4969796;28;20043;-77
2022/04/15 05:10:49;;;;;;;29.90;11.05;;;;;;;25.67;19.78;95439.28;4969285;28;20035;-75
2022/04/15 05:13:14;;;;;;;51.47;13.20;;;;;;;26.69;19.34;95433.47;4969573;28;20101;-76
2022/04/15 05:15:39;;;;;;;25.65;9.05;;;;;;;27.56;17.41;95441.09;4969974;28;20042;-77
2022/04/15 05:18:05;;;;;;;28.92;10.10;;;;;;;28.34;17.07;95444.00;4969815;28;20057;-77
2022/04/15 05:20:32;;;;;;;34.20;8.75;;;;;;;28.87;16.73;95434.34;4969685;28;20565;-76
2022/04/15 05:22:58;;;;;;;37.67;8.93;;;;;;;29.22;16.58;95446.19;4970818;28;20045;-77
2022/04/15 05:25:24;;;;;;;33.20;9.07;;;;;;;29.44;15.51;95430.75;4970513;28;20039;-77
2022/04/15 05:27:49;;;;;;;44.45;9.70;;;;;;;29.59;15.60;95428.19;4969592;28;20058;-76
2022/04/15 05:30:15;;;;;;;28.75;9.70;;;;;;;29.84;15.21;95434.28;4970236;28;20041;-77
2022/04/15 05:32:40;;;;;;;43.22;10.25;;;;;;;30.39;14.64;95432.00;4970819;28;20042;-77
2022/04/15 05:35:07;;;;;;;33.80;9.07;;;;;;;30.97;14.35;95435.03;4970759;28;20038;-77
2022/04/15 05:37:32;;;;;;;23.02;8.70;;;;;;;31.69;13.40;95432.88;4968442;28;20078;-77
2022/04/15 05:39:57;;;;;;;29.75;8.82;;;;;;;32.08;13.51;95431.03;4970500;28;20499;-77
2022/04/15 05:42:26;;;;;;;49.47;10.23;;;;;;;32.65;12.99;95434.81;4969087;28;20042;-77
2022/04/15 05:44:52;;;;;;;32.60;9.93;;;;;;;33.23;12.58;95436.56;4970300;28;20126;-77
2022/04/15 05:47:17;;;;;;;34.25;9.57;;;;;;;33.59;11.87;95427.88;4952840;28;20549;-77
2022/04/15 05:49:43;;;;;;;28.63;9.68;;;;;;;33.95;11.91;95423.00;4970548;28;20034;-77
2022/04/15 05:52:08;;;;;;;38.58;10.82;;;;;;;34.43;11.46;95426.66;4970233;28;20085;-77
2022/04/15 05:54:34;;;;;;;25.65;9.68;;;;;;;34.38;11.55;95429.69;4970559;28;20043;-77
2022/04/15 05:56:59;;;;;;;38.35;10.23;;;;;;;34.12;11.86;95421.66;4970036;28;20035;-75
2022/04/15 05:59:25;;;;;;;24.08;10.38;;;;;;;32.99;12.29;95427.72;4952689;28;20047;-76
2022/04/15 06:01:53;;;;;;;23.40;10.30;;;;;;;32.32;12.52;95432.66;4956544;28;20517;-77
2022/04/15 06:04:19;;;;;;;26.83;10.32;;;;;;;31.57;13.42;95423.03;4956738;28;20027;-76
2022/04/15 06:06:44;;;;;;;37.55;9.98;;;;;;;30.95;13.82;95426.56;4973019;28;20039;-75
2022/04/15 06:09:09;;;;;;;30.92;10.75;;;;;;;30.38;14.32;95417.78;4971048;28;20031;-77
2022/04/15 06:11:36;;;;;;;29.23;10.88;;;;;;;29.78;14.55;95414.22;4973907;28;20414;-77
2022/04/15 06:14:04;;;;;;;23.55;10.63;;;;;;;29.34;15.11;95420.50;4973608;28;20080;-77
2022/04/15 06:16:32;;;;;;;28.60;10.82;;;;;;;28.97;15.57;95423.19;4973807;28;20050;-76
2022/04/15 06:19:01;;;;;;;31.83;10.20;;;;;;;28.62;16.12;95423.53;4972341;28;20030;-76
2022/04/15 06:21:29;;;;;;;21.92;10.60;;;;;;;28.37;16.43;95429.97;4973118;28;20038;-76
2022/04/15 06:23:55;;;;;;;26.80;10.27;;;;;;;28.21;16.33;95424.41;4972325;28;20045;-76
2022/04/15 06:26:20;;;;;;;30.58;9.98;;;;;;;27.88;16.77;95427.06;4987959;28;20031;-76
2022/04/15 06:28:45;;;;;;;19.65;10.02;;;;;;;27.43;17.06;95416.97;4973148;28;20038;-76
2022/04/15 06:31:11;;;;;;;32.28;10.00;;;;;;;26.94;17.18;95413.13;4971760;28;20055;-77
2022/04/15 06:33:37;;;;;;;25.35;9.85;;;;;;;26.38;17.53;95419.59;4973127;28;20041;-76
2022/04/15 06:36:03;;;;;;;26.08;9.93;;;;;;;25.88;18.13;95422.75;4971163;28;20566;-76
2022/04/15 06:38:29;;;;;;;20.58;10.55;;;;;;;25.55;19.12;95417.84;4973015;28;20038;-76
2022/04/15 06:40:54;;;;;;;30.52;11.23;;;;;;;25.55;19.36;95415.19;4973230;28;20042;-76
2022/04/15 06:43:20;;;;;;;33.60;12.18;;;;;;;25.34;19.18;95409.63;5036580;23;20042;-76
2022/04/15 06:45:45;;;;;;;35.75;10.65;;;;;;;25.28;19.13;95412.78;5011401;28;20030;-76
2022/04/15 06:48:11;;;;;;;24.52;10.10;;;;;;;25.12;19.64;95413.19;5011635;28;20095;-76
2022/04/15 06:50:36;;;;;;;24.60;10.95;;;;;;;24.96;19.55;95408.59;5009227;28;20030;-76
2022/04/15 06:53:02;;;;;;;25.60;10.05;;;;;;;24.79;20.33;95412.75;5012366;28;20065;-77
2022/04/15 06:55:27;;;;;;;26.58;9.55;;;;;;;24.76;19.58;95409.94;5012324;28;20060;-77
2022/04/15 06:58:00;;;;;;;31.67;11.73;;;;;;;24.69;20.31;95409.56;5012458;28;20095;-77
2022/04/15 07:00:25;;;;;;;27.20;10.02;;;;;;;24.73;20.11;95415.84;5000836;28;20061;-77
2022/04/15 07:02:51;;;;;;;18.85;9.60;;;;;;;24.77;20.03;95406.16;5003040;28;20034;-77
2022/04/15 07:05:16;;;;;;;29.88;10.15;;;;;;;24.79;19.47;95403.97;4984454;28;20085;-77
2022/04/15 07:07:42;;;;;;;21.85;9.50;;;;;;;24.76;19.67;95401.94;4984836;28;20088;-77
2022/04/15 07:10:08;;;;;;;34.45;9.27;;;;;;;24.69;20.05;95401.59;4968724;28;20036;-77
2022/04/15 07:12:34;;;;;;;22.02;9.40;;;;;;;24.51;19.32;95404.16;4967779;28;20038;-77
2022/04/15 07:14:59;;;;;;;25.80;10.10;;;;;;;24.32;19.33;95398.28;5001258;28;20084;-77
2022/04/15 07:17:25;;;;;;;27.00;9.45;;;;;;;24.16;20.10;95407.69;4985188;28;20038;-77
2022/04/15 07:19:50;;;;;;;24.45;8.88;;;;;;;24.00;19.67;95403.81;5001474;28;20092;-77
2022/04/15 07:22:18;;;;;;;15.75;8.13;;;;;;;23.98;20.30;95400.69;5008361;28;20057;-77
2022/04/15 07:24:43;;;;;;;14.20;7.88;;;;;;;24.03;20.49;95404.00;4969139;28;20100;-77
2022/04/15 07:27:09;;;;;;;15.65;7.68;;;;;;;23.94;19.40;95396.00;4998521;28;20034;-77
2022/04/15 07:29:34;;;;;;;20.83;7.82;;;;;;;23.84;19.55;95398.88;5001439;28;20038;-76
2022/04/15 07:32:00;;;;;;;26.40;8.32;;;;;;;23.65;19.71;95392.94;5001058;28;20108;-76
2022/04/15 07:34:26;;;;;;;15.43;7.90;;;;;;;23.54;20.12;95396.88;5000986;28;20413;-76
2022/04/15 07:36:57;;;;;;;30.35;8.52;;;;;;;23.51;20.45;95397.47;4968478;28;20042;-80
2022/04/15 07:39:22;;;;;;;20.27;9.07;;;;;;;23.46;20.40;95394.94;4984356;28;20044;-75
2022/04/15 07:41:48;;;;;;;25.50;8.80;;;;;;;23.45;20.21;95393.38;4983031;28;20038;-77
2022/04/15 07:44:14;;;;;;;28.00;9.65;;;;;;;23.29;20.61;95385.72;4984427;28;20052;-79
2022/04/15 07:46:40;;;;;;;19.33;9.23;;;;;;;23.22;20.93;95387.97;4984190;28;20038;-80
2022/04/15 07:49:06;;;;;;;21.10;9.23;;;;;;;23.17;21.41;95390.75;5001314;28;20040;-75
2022/04/15 07:51:32;;;;;;;24.90;9.93;;;;;;;23.16;20.78;95391.84;4984892;28;20038;-81
2022/04/15 07:53:58;;;;;;;23.25;9.65;;;;;;;23.07;20.53;95383.00;4989101;28;20030;-85
2022/04/15 07:56:23;;;;;;;20.23;8.95;;;;;;;22.89;21.10;95386.53;4973146;28;20060;-84
2022/04/15 07:58:50;;;;;;;74.93;11.05;;;;;;;22.76;21.52;95388.06;5011720;28;20095;-79
2022/04/15 08:01:16;;;;;;;19.55;8.70;;;;;;;22.67;21.13;95385.34;5004394;28;20041;-79
2022/04/15 08:03:42;;;;;;;15.38;8.20;;;;;;;22.64;20.75;95385.94;4986146;28;20026;-81
2022/04/15 08:06:07;;;;;;;27.90;9.00;;;;;;;22.57;21.93;95380.22;4973172;28;20045;-80
2022/04/15 08:08:33;;;;;;;22.02;7.53;;;;;;;22.42;20.50;95377.84;4987166;28;20030;-79
2022/04/15 08:10:58;;;;;;;20.10;7.47;;;;;;;22.37;20.69;95367.34;5013176;28;20468;-79
2022/04/15 08:13:24;;;;;;;20.35;8.18;;;;;;;22.35;20.69;95372.16;5005490;28;20037;-79
2022/04/15 08:15:53;;;;;;;20.55;8.00;;;;;;;22.24;21.02;95376.81;4970879;28;20046;-79
2022/04/15 08:18:24;;;;;;;22.90;7.88;;;;;;;22.15;21.10;95379.38;4987162;28;20508;-80
2022/04/15 08:20:55;;;;;;;15.07;7.50;;;;;;;22.04;21.89;95367.34;4973376;28;20026;-80
2022/04/15 08:23:20;;;;;;;14.82;7.82;;;;;;;22.06;21.63;95370.50;4972382;28;20038;-80
2022/04/15 08:25:47;;;;;;;16.10;7.60;;;;;;;22.01;22.31;95365.28;5006855;28;20049;-79
2022/04/15 08:28:12;;;;;;;21.27;7.80;;;;;;;21.98;22.00;95365.06;4955999;28;20047;-80
2022/04/15 08:30:38;;;;;;;34.05;8.40;;;;;;;21.94;22.16;95359.53;4972713;28;20410;-79
2022/04/15 08:33:08;;;;;;;20.65;7.25;;;;;;;21.88;22.00;95363.38;4986899;28;20078;-80
2022/04/15 08:35:34;;;;;;;24.33;7.28;;;;;;;21.83;21.92;95355.50;4987098;28;20038;-80
2022/04/15 08:37:59;;;;;;;18.50;7.90;;;;;;;21.74;22.46;95347.44;4995422;28;20093;-80
2022/04/15 08:40:31;;;;;;;18.00;7.55;;;;;;;21.65;22.09;95343.09;4977644;28;20044;-79
2022/04/15 08:42:57;;;;;;;14.57;7.35;;;;;;;21.45;22.82;95352.09;4971290;28;20034;-80
2022/04/15 08:45:25;;;;;;;17.33;7.38;;;;;;;21.43;22.10;95347.09;4986924;28;20444;-78
2022/04/15 08:47:50;;;;;;;21.50;7.47;;;;;;;21.39;22.33;95340.81;4976448;28;20116;-78
2022/04/15 08:50:15;;;;;;;11.35;7.07;;;;;;;21.23;22.58;95339.41;4975309;28;20509;-79
2022/04/15 08:52:41;;;;;;;23.77;7.03;;;;;;;21.24;22.41;95339.16;4987738;28;20026;-79
2022/04/15 08:55:07;;;;;;;17.52;6.95;;;;;;;21.20;22.64;95337.34;4972617;28;20059;-80
2022/04/15 08:57:32;;;;;;;18.60;6.93;;;;;;;21.22;22.81;95329.91;4979245;28;20046;-79
2022/04/15 08:59:58;;;;;;;18.77;6.97;;;;;;;21.15;22.82;95332.94;4972043;28;20037;-79
2022/04/15 09:02:35;;;;;;;19.38;7.50;;;;;;;21.13;23.25;95326.31;4990919;28;20034;-79
2022/04/15 09:05:01;;;;;;;17.42;7.13;;;;;;;21.19;23.23;95325.22;4990765;28;20057;-80
2022/04/15 09:07:30;;;;;;;18.05;6.53;;;;;;;21.26;22.90;95315.84;5000334;28;20414;-80
2022/04/15 09:09:56;;;;;;;19.65;6.80;;;;;;;21.36;25.21;95311.50;5001791;28;20038;-80
2022/04/15 09:12:25;;;;;;;18.50;7.03;;;;;;;21.47;22.98;95300.47;5006073;28;20084;-79
2022/04/15 09:17:29;;;;;;;18.70;7.05;;;;;;;21.43;22.82;95291.53;5173829;22;20057;-78
2022/04/15 09:19:58;;;;;;;20.70;7.13;;;;;;;21.30;22.76;95288.81;5003913;28;20026;-79
2022/04/15 09:22:23;;;;;;;17.30;7.47;;;;;;;21.26;22.66;95293.91;5002535;28;20043;-79
2022/04/15 09:24:51;;;;;;;23.42;7.60;;;;;;;21.21;23.38;95280.75;4986209;28;20034;-79
2022/04/15 09:27:16;;;;;;;20.88;7.10;;;;;;;21.25;23.49;95284.41;5002453;28;20031;-79
2022/04/15 09:29:42;;;;;;;18.70;7.10;;;;;;;21.26;24.25;95280.69;4987565;28;20037;-79
2022/04/15 09:32:08;;;;;;;19.60;7.55;;;;;;;21.34;25.53;95274.75;5004090;28;20029;-81
2022/04/15 09:34:34;;;;;;;24.15;7.75;;;;;;;21.42;24.44;95274.09;5008405;28;20130;-80
2022/04/15 09:37:05;;;;;;;24.33;8.07;;;;;;;21.42;23.78;95260.84;4987328;28;20030;-81
2022/04/15 09:39:30;;;;;;;16.80;7.78;;;;;;;21.33;23.10;95261.81;5017426;28;20125;-81
2022/04/15 09:41:56;;;;;;;29.73;8.13;;;;;;;21.22;24.08;95256.66;4986569;28;20037;-80
2022/04/15 09:44:22;;;;;;;32.53;8.45;;;;;;;21.12;23.88;95246.22;5004243;28;20038;-80
2022/04/15 09:46:47;;;;;;;24.58;7.70;;;;;;;21.13;23.88;95249.63;5001282;28;20027;-80
2022/04/15 09:49:13;;;;;;;19.83;7.57;;;;;;;21.07;23.66;95242.88;4985073;28;20575;-79
2022/04/15 09:51:57;;;;;;;19.50;7.70;;;;;;;20.98;23.96;95246.13;5001984;28;20033;-79
2022/04/15 09:54:24;;;;;;;21.25;7.88;;;;;;;20.94;23.72;95229.28;5025704;28;20102;-81
2022/04/15 09:56:50;;;;;;;26.00;7.40;;;;;;;20.91;24.16;95226.44;5002759;28;20062;-81
2022/04/15 09:59:16;;;;;;;20.52;7.82;;;;;;;20.91;23.81;95232.50;4985331;28;20041;-80
2022/04/15 10:01:45;;;;;;;30.73;8.18;;;;;;;20.91;23.85;95219.28;4985392;28;20030;-81
2022/04/15 10:04:12;;;;;;;19.60;6.70;;;;;;;20.97;23.69;95223.41;5004208;28;20022;-81
2022/04/15 10:06:39;;;;;;;12.77;6.47;;;;;;;21.02;23.29;95209.34;5014387;28;20056;-82
2022/04/15 10:09:06;;;;;;;24.67;6.97;;;;;;;21.10;23.00;95210.53;4983492;28;20047;-80
2022/04/15 10:11:32;;;;;;;17.02;6.65;;;;;;;21.15;23.65;95207.81;5002116;28;20484;-80
2022/04/15 10:13:57;;;;;;;19.83;6.85;;;;;;;21.23;23.19;95204.53;4987223;28;20486;-80
2022/04/15 10:16:23;;;;;;;16.38;6.60;;;;;;;21.24;23.31;95192.88;4986344;28;20038;-81
2022/04/15 10:18:49;;;;;;;16.75;6.18;;;;;;;21.17;22.94;95200.41;5001985;28;20057;-79
2022/04/15 10:21:14;;;;;;;24.00;6.13;;;;;;;21.00;23.19;95189.56;5006156;28;20049;-79
2022/04/15 10:23:40;;;;;;;11.10;6.15;;;;;;;20.80;23.33;95191.41;5002672;28;20058;-79
2022/04/15 10:26:06;;;;;;;15.40;5.60;;;;;;;20.78;23.59;95183.00;5008116;28;20119;-79
2022/04/15 10:28:42;;;;;;;10.07;5.95;;;;;;;20.65;23.88;95189.00;4991278;28;20061;-79
2022/04/15 10:31:13;;;;;;;18.17;6.82;;;;;;;20.60;23.66;95183.78;5007810;28;20030;-79
2022/04/15 10:33:49;;;;;;;17.52;6.25;;;;;;;20.69;23.71;95179.44;5005790;28;20056;-81
2022/04/15 10:36:22;;;;;;;23.58;6.38;;;;;;;20.76;23.55;95169.28;5000388;28;20041;-82
2022/04/15 10:39:03;;;;;;;21.48;6.28;;;;;;;20.71;23.68;95164.09;4987954;28;20553;-81
2022/04/15 10:41:40;;;;;;;10.60;5.38;;;;;;;20.65;23.73;95165.22;5003860;28;20090;-81
2022/04/15 10:44:06;;;;;;;15.90;7.07;;;;;;;20.78;24.09;95156.56;5003704;28;20042;-81
2022/04/15 10:46:34;;;;;;;12.75;5.60;;;;;;;20.87;23.32;95149.56;5004057;28;20029;-81
2022/04/15 10:49:00;;;;;;;26.10;6.32;;;;;;;20.76;23.58;95148.13;5003641;28;20141;-81
2022/04/15 10:51:29;;;;;;;9.27;5.65;;;;;;;20.81;23.11;95142.75;5005886;28;20034;-81
2022/04/15 10:53:56;;;;;;;23.30;6.15;;;;;;;20.81;23.05;95145.41;5005787;28;20031;-81
2022/04/15 10:56:23;;;;;;;13.88;5.72;;;;;;;20.84;22.67;95142.22;5005102;28;20042;-82
2022/04/15 11:01:56;;;;;;;10.43;5.65;;;;;;;20.79;22.32;95147.56;5007874;28;20041;-82
2022/04/15 11:04:25;;;;;;;12.30;4.43;;;;;;;20.95;22.39;95133.03;5005687;28;20647;-82
2022/04/15 11:06:51;;;;;;;8.82;5.18;;;;;;;21.10;22.68;95136.50;5007015;28;20073;-81
2022/04/15 11:09:20;;;;;;;25.17;4.97;;;;;;;21.23;22.10;95125.97;5008790;28;20474;-82
2022/04/15 11:11:50;;;;;;;22.05;5.38;;;;;;;21.34;23.14;95131.91;5013359;28;20038;-81
2022/04/15 11:14:16;;;;;;;10.52;4.85;;;;;;;21.43;22.20;95124.84;5005509;28;20038;-81
2022/04/15 11:17:14;;;;;;;8.57;5.32;;;;;;;21.39;21.96;95126.53;5006357;28;20040;-81
2022/04/15 11:19:39;;;;;;;8.27;5.22;;;;;;;21.42;22.13;95118.00;4983033;28;20042;-78
2022/04/15 11:22:05;;;;;;;18.92;5.65;;;;;;;21.34;21.68;95121.31;5001071;28;20627;-79
2022/04/15 11:24:32;;;;;;;22.95;5.65;;;;;;;21.36;21.93;95119.16;5000412;28;20034;-77
2022/04/15 11:27:03;;;;;;;14.85;4.80;;;;;;;21.40;21.87;95116.72;4999303;28;20113;-77